Terminal Aerodrome Forecast
Issued by NWS Cleveland, OH

Home | Current Version | Previous Version | Text Only | Print | Product List | Glossary Off
Versions: 1 2 3 4 5 6 7 8 9 10 11 12 13 14 15 16 17 18 19 20 21 22 23 24 25 26

160
FTUS41 KCLE 262334
TAFCAK
TAF
KCAK 262334Z 2700/2724 20007KT P6SM BKN035
      TEMPO 2702/2706 2SM -TSRA BKN015CB
     FM270600 21005KT 4SM BR OVC008
     FM271400 23006KT P6SM OVC020
     FM272000 24006KT P6SM BKN050=

USA.gov is the U.S. government's official web portal to all federal, state and local government web resources and services.